Aeroporto :
LOGIN :

Iscrizione | Disclaimer

   EN    FR    IT 

 










Sommario :    VFR   VFR Marginale   IFR   IFR Intensivo   IFR Molto Intensivo
Visibilità : 
Base nubi : 
>= 8 km
>= 3000ft
5 / 8 km
1000 / 3000 ft
1500m / 5 km
500 / 1000 ft
800 / 1500m
200 / 500 ft
< 800m
< 200 ft
Simboli :   Temporali  Nebbia  Neve Forte  Precipitazioni Forti  Vento > 20 kt
SIGMETs :   Varie  Temporali  Ghiacco  Turbolenza  Onda orograficha  Ceneri Vulcaniche






- Altitudine del aeroporto : 13 ft
- Codice IATA : LYX


EGMD - Lydd

ULTIMO METAR :
  • 221650Z 11018KT CAVOK 10/07 Q0995

METARs OBSOLETI :
  • 221620Z 12015KT CAVOK 10/07 Q0995
  • 221550Z 13016KT CAVOK 10/07 Q0996
  • 221520Z 13016KT CAVOK 11/07 Q0996
  • 221450Z 13015KT CAVOK 10/08 Q0996
  • 221420Z 14015KT CAVOK 10/08 Q0996

TAF TAF EGMD
Valido dal 22 a 15 ore il 23 a 00 ore UTC


221354Z 2215/2224 14018G28KT 9999 SCT015
PROB40
TEMPO 2218/2224 8000 SHRA BKN012
ATIS : +44 1797 322 422



MetMap, La meteo Aeronautica in un colpo d'occhio ! - Copyright ORBIFLY Dicembre 2007 - Disclaimer

ORBIFLY MET'MAP TEAM :

Programmazione e sviluppo : Alexandra Zaïnal
Concezione e sviluppo : Baudouin d'Aumeries
Co-Programmazione e sviluppo : Marc-Olivier Méhu
Supporto tecnico e logistico : Manuel Goepfert
Aiuto per la traduzione : Arnaldo La Scala

Contatto : metmap@orbifly.com




FONTI E CREDITI :

   NOAA